createdAt,value
2023-05-24T00:02:03.911Z,61.72
2023-05-24T00:04:31.796Z,61.20
2023-05-24T00:07:02.772Z,61.48
2023-05-24T00:09:30.785Z,61.22
2023-05-24T00:11:58.764Z,60.96
2023-05-24T00:14:26.855Z,61.16
2023-05-24T00:16:54.803Z,61.07
2023-05-24T00:19:29.771Z,60.62
2023-05-24T00:21:58.019Z,60.50
2023-05-24T00:24:25.695Z,60.70
2023-05-24T00:26:53.425Z,59.92
2023-05-24T00:31:50.563Z,60.68
2023-05-24T00:34:18.491Z,60.69
2023-05-24T00:36:45.958Z,61.39
2023-05-24T00:39:13.914Z,61.14
2023-05-24T00:41:43.190Z,61.07
2023-05-24T00:44:11.129Z,61.05
2023-05-24T00:46:39.331Z,60.62
2023-05-24T00:49:07.223Z,61.33
2023-05-24T00:51:36.750Z,61.85
2023-05-24T00:54:05.334Z,62.03
2023-05-24T00:56:33.009Z,61.85
2023-05-24T00:59:01.016Z,61.40
2023-05-24T01:01:31.145Z,62.13
2023-05-24T01:03:59.674Z,62.93
2023-05-24T01:06:28.126Z,61.62
2023-05-24T01:09:03.172Z,62.14
2023-05-24T01:11:46.187Z,61.48
2023-05-24T01:14:29.656Z,62.55
2023-05-24T01:17:15.280Z,62.06
2023-05-24T01:19:54.049Z,61.82
2023-05-24T01:22:28.257Z,62.10
2023-05-24T01:25:14.396Z,61.23
2023-05-24T01:27:42.042Z,62.09
2023-05-24T01:30:09.871Z,61.37
2023-05-24T01:32:38.976Z,62.56
2023-05-24T01:35:07.078Z,62.38
2023-05-24T01:37:36.345Z,62.38
2023-05-24T01:40:04.648Z,62.14
2023-05-24T01:42:42.211Z,62.12
2023-05-24T01:45:18.517Z,62.00
2023-05-24T01:48:07.436Z,61.85
2023-05-24T01:50:37.353Z,62.52
2023-05-24T01:53:05.736Z,61.59
2023-05-24T01:55:33.450Z,61.98
2023-05-24T01:58:02.391Z,62.48
2023-05-24T02:00:30.245Z,62.70
2023-05-24T02:02:58.716Z,62.81
2023-05-24T02:05:26.894Z,62.54
2023-05-24T02:07:56.211Z,62.53
2023-05-24T02:10:24.461Z,62.41
2023-05-24T02:12:51.837Z,62.20
2023-05-24T02:15:20.897Z,62.60
2023-05-24T02:17:49.757Z,62.39
2023-05-24T02:20:17.749Z,62.80
2023-05-24T02:22:45.303Z,61.90
2023-05-24T02:25:12.973Z,62.11
2023-05-24T02:27:42.231Z,62.06
2023-05-24T02:30:11.176Z,61.54
2023-05-24T02:32:39.460Z,61.98
2023-05-24T02:35:08.014Z,62.42
2023-05-24T02:37:35.898Z,62.93
2023-05-24T02:40:05.577Z,62.92
2023-05-24T02:42:33.875Z,62.97
2023-05-24T02:45:01.392Z,62.78
2023-05-24T02:47:28.797Z,62.39
2023-05-24T02:49:56.838Z,62.63
2023-05-24T02:52:24.773Z,62.64
2023-05-24T02:54:52.713Z,62.49
2023-05-24T02:57:21.019Z,62.46
2023-05-24T02:59:48.680Z,63.11
2023-05-24T03:02:18.216Z,62.77
2023-05-24T03:04:45.997Z,63.58
2023-05-24T03:07:15.003Z,64.05
2023-05-24T03:09:43.254Z,63.91
2023-05-24T03:12:10.810Z,63.57
2023-05-24T03:14:38.614Z,63.08
2023-05-24T03:17:07.442Z,63.63
2023-05-24T03:19:37.498Z,63.46
2023-05-24T03:22:06.761Z,63.34
2023-05-24T03:24:38.588Z,63.67
2023-05-24T03:27:06.793Z,63.51
2023-05-24T03:29:34.803Z,63.72
2023-05-24T03:32:03.561Z,63.87
2023-05-24T03:34:31.609Z,63.65
2023-05-24T03:37:00.253Z,63.85
2023-05-24T03:39:28.459Z,64.32
2023-05-24T03:41:57.705Z,63.61
2023-05-24T03:44:26.170Z,64.15
2023-05-24T03:46:53.835Z,65.78
2023-05-24T03:49:21.324Z,65.31
2023-05-24T03:51:50.169Z,66.10
2023-05-24T03:54:18.811Z,66.02
2023-05-24T03:56:46.713Z,64.28
2023-05-24T03:59:14.704Z,63.62
2023-05-24T04:01:42.184Z,64.20
2023-05-24T04:04:10.482Z,65.64
2023-05-24T04:06:41.896Z,64.58
2023-05-24T04:09:11.461Z,64.64
2023-05-24T04:11:40.510Z,65.33
2023-05-24T04:14:08.198Z,64.87
2023-05-24T04:16:39.809Z,65.16
2023-05-24T04:19:09.640Z,65.41
2023-05-24T04:21:38.715Z,66.89
2023-05-24T04:24:06.777Z,66.44
2023-05-24T04:26:34.932Z,66.23
2023-05-24T04:29:14.344Z,65.03
2023-05-24T04:31:45.155Z,65.17
2023-05-24T04:34:15.284Z,65.64
2023-05-24T04:36:44.113Z,66.52
2023-05-24T04:39:11.729Z,65.49
2023-05-24T04:41:41.233Z,65.06
2023-05-24T04:44:10.440Z,64.68
2023-05-24T04:49:15.206Z,64.90
2023-05-24T04:51:44.349Z,66.21
2023-05-24T04:54:12.241Z,66.48
2023-05-24T04:56:40.348Z,68.09
2023-05-24T04:59:08.425Z,67.46
2023-05-24T05:01:39.372Z,68.19
2023-05-24T05:04:08.140Z,67.00
2023-05-24T05:06:39.851Z,67.09
2023-05-24T05:09:14.449Z,66.70
2023-05-24T05:11:43.347Z,67.86
2023-05-24T05:14:14.227Z,66.25
2023-05-24T05:16:42.674Z,67.46
2023-05-24T05:19:10.904Z,67.58
2023-05-24T05:21:41.665Z,67.71
2023-05-24T05:24:11.686Z,66.18
2023-05-24T05:26:40.637Z,67.86
2023-05-24T05:29:10.488Z,65.68
2023-05-24T05:31:39.639Z,65.65
2023-05-24T05:34:11.942Z,64.49
2023-05-24T05:36:41.022Z,63.86
2023-05-24T05:39:12.171Z,63.50
2023-05-24T05:41:44.656Z,63.42
2023-05-24T05:44:14.611Z,63.04
2023-05-24T05:46:46.556Z,62.80
2023-05-24T05:49:16.031Z,62.93
2023-05-24T05:51:43.575Z,62.66
2023-05-24T05:54:16.360Z,61.25
2023-05-24T05:56:49.458Z,60.84
2023-05-24T05:59:17.461Z,59.64
2023-05-24T06:01:47.542Z,59.02
2023-05-24T06:04:15.821Z,59.32
2023-05-24T06:06:45.589Z,58.57
2023-05-24T06:09:14.838Z,58.88
2023-05-24T06:11:45.291Z,58.71
2023-05-24T06:14:18.521Z,58.70
2023-05-24T06:16:48.538Z,58.22
2023-05-24T06:19:16.956Z,58.72
2023-05-24T06:21:48.485Z,59.27
2023-05-24T06:24:22.502Z,58.17
2023-05-24T06:26:52.951Z,58.09
2023-05-24T06:29:28.589Z,59.07
2023-05-24T06:31:56.294Z,58.30
2023-05-24T06:34:24.187Z,58.48
2023-05-24T06:36:53.039Z,58.41
2023-05-24T06:39:21.423Z,57.23
2023-05-24T06:41:52.292Z,56.17
2023-05-24T06:44:25.309Z,56.41
2023-05-24T06:46:57.650Z,57.54
2023-05-24T06:49:25.572Z,55.90
2023-05-24T06:51:55.561Z,55.86
2023-05-24T06:54:23.106Z,56.25
2023-05-24T06:56:53.594Z,57.89
2023-05-24T06:59:23.410Z,56.64
2023-05-24T07:01:58.990Z,56.76
2023-05-24T07:04:30.689Z,55.69
2023-05-24T07:06:58.838Z,55.93
2023-05-24T07:09:26.673Z,56.68
2023-05-24T07:11:55.504Z,54.96
2023-05-24T07:14:27.573Z,55.81
2023-05-24T07:16:58.375Z,54.89
2023-05-24T07:19:29.906Z,54.55
2023-05-24T07:21:59.671Z,54.04
2023-05-24T07:24:27.961Z,54.97
2023-05-24T07:26:59.561Z,55.76
2023-05-24T07:29:28.490Z,53.89
2023-05-24T07:31:57.391Z,54.72
2023-05-24T07:34:31.136Z,54.88
2023-05-24T07:37:01.562Z,54.19
2023-05-24T07:39:29.194Z,53.13
2023-05-24T07:41:58.870Z,53.96
2023-05-24T07:44:29.613Z,52.67
2023-05-24T07:46:58.570Z,52.61
2023-05-24T07:49:27.912Z,52.52
2023-05-24T07:51:59.791Z,52.15
2023-05-24T07:54:28.528Z,54.25
2023-05-24T07:56:58.320Z,54.21
2023-05-24T07:59:28.164Z,53.88
2023-05-24T08:02:01.555Z,52.59
2023-05-24T08:04:33.597Z,53.42
2023-05-24T08:07:03.066Z,52.91
2023-05-24T08:09:35.819Z,52.74
2023-05-24T08:12:05.887Z,51.20
2023-05-24T08:14:33.679Z,51.42
2023-05-24T08:17:01.279Z,50.69
2023-05-24T08:19:35.814Z,50.49
2023-05-24T08:22:05.011Z,51.31
2023-05-24T08:24:32.918Z,50.73
2023-05-24T08:27:00.395Z,49.97
2023-05-24T08:29:29.000Z,49.07
2023-05-24T08:31:56.867Z,51.12
2023-05-24T08:34:25.658Z,49.50
2023-05-24T08:36:53.959Z,49.87
2023-05-24T08:39:24.354Z,48.18
2023-05-24T08:42:07.866Z,48.84
2023-05-24T08:44:54.338Z,48.89
2023-05-24T08:47:22.976Z,49.62
2023-05-24T08:49:52.000Z,48.80
2023-05-24T08:52:21.191Z,47.43
2023-05-24T08:54:53.308Z,47.18
2023-05-24T08:57:21.609Z,48.58
2023-05-24T08:59:50.223Z,47.67
2023-05-24T09:02:18.608Z,48.51
2023-05-24T09:04:47.008Z,47.47
2023-05-24T09:07:21.066Z,47.71
2023-05-24T09:09:50.721Z,48.20
2023-05-24T09:12:35.381Z,47.48
2023-05-24T09:15:05.738Z,48.39
2023-05-24T09:17:35.930Z,48.76
2023-05-24T09:20:11.488Z,48.11
2023-05-24T09:22:42.098Z,47.47
2023-05-24T09:25:11.517Z,46.79
2023-05-24T09:27:39.414Z,47.62
2023-05-24T09:30:10.425Z,48.33
2023-05-24T09:32:38.372Z,47.18
2023-05-24T09:35:11.000Z,45.49
2023-05-24T09:37:41.935Z,44.98
2023-05-24T09:40:18.991Z,45.76
2023-05-24T09:42:54.186Z,45.80
2023-05-24T09:45:22.078Z,46.19
2023-05-24T09:47:52.650Z,45.97
2023-05-24T09:50:22.892Z,44.83
2023-05-24T09:52:50.947Z,45.58
2023-05-24T09:55:23.585Z,43.78
2023-05-24T09:57:53.491Z,44.48
2023-05-24T10:00:25.208Z,45.97
2023-05-24T10:03:02.871Z,44.52
2023-05-24T10:05:30.631Z,44.39
2023-05-24T10:07:58.696Z,44.50
2023-05-24T10:10:28.341Z,44.25
2023-05-24T10:12:57.585Z,43.99
2023-05-24T10:15:26.243Z,45.17
2023-05-24T10:17:55.500Z,42.88
2023-05-24T10:20:23.818Z,43.02
2023-05-24T10:22:53.525Z,43.33
2023-05-24T10:25:25.630Z,43.24
2023-05-24T10:27:55.026Z,42.79
2023-05-24T10:30:27.651Z,40.56
2023-05-24T10:32:56.935Z,41.41
2023-05-24T10:35:25.048Z,40.31
2023-05-24T10:37:52.501Z,41.00
2023-05-24T10:40:22.321Z,42.54
2023-05-24T10:42:51.832Z,43.61
2023-05-24T10:45:35.951Z,41.98
2023-05-24T10:48:24.988Z,40.99
2023-05-24T10:50:53.274Z,42.32
2023-05-24T10:53:27.393Z,41.67
2023-05-24T10:56:01.238Z,41.32
2023-05-24T10:58:35.615Z,41.19
2023-05-24T11:01:05.377Z,41.28
2023-05-24T11:03:34.933Z,41.04
2023-05-24T11:06:04.877Z,40.62
2023-05-24T11:08:33.716Z,41.35
2023-05-24T11:11:23.439Z,40.94
2023-05-24T11:14:00.390Z,39.45
2023-05-24T11:19:28.975Z,39.60
2023-05-24T11:21:58.967Z,39.17
2023-05-24T11:24:33.295Z,39.33
2023-05-24T11:27:04.676Z,37.84
2023-05-24T11:29:56.229Z,38.69
2023-05-24T11:32:25.589Z,38.90
2023-05-24T11:34:56.589Z,37.27
2023-05-24T11:37:38.506Z,37.56
2023-05-24T11:40:20.556Z,37.40
2023-05-24T11:42:50.345Z,37.43
2023-05-24T11:45:19.462Z,35.96
2023-05-24T11:47:53.383Z,37.04
2023-05-24T11:50:26.679Z,38.25
2023-05-24T11:53:02.238Z,37.29
2023-05-24T11:55:30.390Z,37.06
2023-05-24T11:58:00.465Z,36.50
2023-05-24T12:00:29.872Z,37.79
2023-05-24T12:03:07.393Z,36.22
2023-05-24T12:05:36.382Z,37.17
2023-05-24T12:08:06.416Z,36.58
2023-05-24T12:10:42.927Z,36.63
2023-05-24T12:13:25.845Z,36.98
2023-05-24T12:15:56.137Z,37.02
2023-05-24T12:18:26.409Z,35.57
2023-05-24T12:20:55.660Z,36.31
2023-05-24T12:23:34.364Z,36.54
2023-05-24T12:26:04.048Z,36.92
2023-05-24T12:28:39.278Z,38.78
2023-05-24T12:31:10.483Z,35.91
2023-05-24T12:33:39.711Z,34.88
2023-05-24T12:36:08.480Z,36.63
2023-05-24T12:38:40.417Z,36.59
2023-05-24T12:41:13.681Z,36.76
2023-05-24T12:43:44.539Z,35.35
2023-05-24T12:46:13.469Z,35.60
2023-05-24T12:48:42.660Z,35.84
2023-05-24T12:51:11.453Z,34.60
2023-05-24T12:53:39.050Z,35.02
2023-05-24T12:56:08.707Z,35.09
2023-05-24T12:58:36.666Z,35.98
2023-05-24T13:01:05.614Z,35.37
2023-05-24T13:03:35.565Z,35.31
2023-05-24T13:06:09.757Z,35.48
2023-05-24T13:08:40.875Z,35.19
2023-05-24T13:11:11.519Z,35.20
2023-05-24T13:13:39.864Z,34.56
2023-05-24T13:16:07.640Z,34.83
2023-05-24T13:18:38.414Z,34.99
2023-05-24T13:21:12.209Z,35.28
2023-05-24T13:23:43.340Z,34.28
2023-05-24T13:26:13.520Z,35.14
2023-05-24T13:28:59.055Z,34.82
2023-05-24T13:31:34.741Z,34.66
2023-05-24T13:34:05.495Z,36.64
2023-05-24T13:36:38.322Z,36.71
2023-05-24T13:41:45.757Z,35.56
2023-05-24T13:44:18.457Z,34.83
2023-05-24T13:46:47.581Z,35.75
2023-05-24T13:49:16.014Z,35.52
2023-05-24T13:51:45.847Z,34.71
2023-05-24T13:54:15.571Z,34.84
2023-05-24T13:56:46.618Z,35.71
2023-05-24T13:59:16.385Z,35.60
2023-05-24T14:01:46.442Z,36.14
2023-05-24T14:04:23.600Z,35.56
2023-05-24T14:06:52.730Z,35.96
2023-05-24T14:09:23.886Z,36.44
2023-05-24T14:11:52.849Z,35.72
2023-05-24T14:17:00.689Z,36.56
2023-05-24T14:19:30.791Z,37.49
2023-05-24T14:21:58.468Z,37.44
2023-05-24T14:24:28.778Z,37.28
2023-05-24T14:26:56.583Z,36.94
2023-05-24T14:29:25.474Z,36.83
2023-05-24T14:31:57.452Z,36.96
2023-05-24T14:34:26.735Z,37.21
2023-05-24T14:36:54.705Z,37.38
2023-05-24T14:39:25.491Z,37.86
2023-05-24T14:41:53.530Z,38.27
2023-05-24T14:44:21.897Z,37.80
2023-05-24T14:46:55.038Z,37.90
2023-05-24T14:49:24.529Z,38.19
2023-05-24T14:54:38.571Z,38.81
2023-05-24T14:57:16.695Z,38.88
2023-05-24T14:59:44.604Z,37.57
2023-05-24T15:02:14.360Z,38.44
2023-05-24T15:07:20.429Z,38.04
2023-05-24T15:09:48.512Z,38.05
2023-05-24T15:12:17.224Z,38.02
2023-05-24T15:17:28.506Z,38.43
2023-05-24T15:19:58.601Z,39.21
2023-05-24T15:22:29.407Z,39.46
2023-05-24T15:25:04.988Z,40.29
2023-05-24T15:27:34.670Z,40.28
2023-05-24T15:30:07.627Z,39.87
2023-05-24T15:32:35.015Z,39.30
2023-05-24T15:35:03.051Z,39.75
2023-05-24T15:42:45.779Z,41.88
2023-05-24T15:45:15.447Z,39.25
2023-05-24T15:47:45.539Z,40.55
2023-05-24T15:50:35.361Z,38.91
2023-05-24T15:53:11.709Z,40.17
2023-05-24T15:55:39.549Z,39.97
2023-05-24T15:58:08.572Z,39.01
2023-05-24T16:00:43.630Z,40.55
2023-05-24T16:03:15.845Z,39.31
2023-05-24T16:05:44.979Z,39.47
2023-05-24T16:10:58.798Z,40.03
2023-05-24T16:13:26.934Z,38.98
2023-05-24T16:16:01.551Z,38.73
2023-05-24T16:18:36.506Z,38.78
2023-05-24T16:21:05.502Z,40.75
2023-05-24T16:23:34.549Z,40.47
2023-05-24T16:26:05.503Z,40.39
2023-05-24T16:28:35.675Z,41.13
2023-05-24T16:31:09.773Z,41.43
2023-05-24T16:36:12.664Z,40.83
2023-05-24T16:38:42.693Z,41.05
2023-05-24T16:41:12.132Z,41.46
2023-05-24T16:43:49.452Z,42.56
2023-05-24T16:46:21.465Z,42.51
2023-05-24T16:48:57.625Z,43.90
2023-05-24T16:51:26.482Z,42.23
2023-05-24T16:53:59.212Z,41.93
2023-05-24T16:56:33.508Z,42.19
2023-05-24T17:01:40.569Z,42.44
2023-05-24T17:04:08.990Z,42.93
2023-05-24T17:06:39.313Z,41.44
2023-05-24T17:09:13.324Z,42.28
2023-05-24T17:11:51.464Z,41.64
2023-05-24T17:14:24.549Z,42.55
2023-05-24T17:16:53.499Z,42.66
2023-05-24T17:19:25.457Z,43.32
2023-05-24T17:22:12.494Z,42.79
2023-05-24T17:24:43.753Z,43.16
2023-05-24T17:27:22.130Z,44.85
2023-05-24T17:35:09.780Z,45.50
2023-05-24T17:37:45.798Z,45.33
2023-05-24T17:40:15.314Z,44.80
2023-05-24T17:43:06.355Z,45.66
2023-05-24T17:48:18.546Z,45.68
2023-05-24T17:50:56.597Z,46.60
2023-05-24T18:06:55.542Z,47.88
2023-05-24T18:09:29.593Z,47.34
2023-05-24T18:12:12.717Z,48.33
2023-05-24T18:14:46.452Z,49.23
2023-05-24T18:17:17.568Z,48.19
2023-05-24T18:25:25.574Z,49.50
2023-05-24T18:28:03.752Z,49.47
2023-05-24T18:33:22.814Z,49.79
2023-05-24T18:35:57.259Z,50.16
2023-05-24T18:38:28.321Z,50.96
2023-05-24T18:41:08.688Z,50.10
2023-05-24T18:43:43.572Z,49.67
2023-05-24T18:46:18.880Z,50.18
2023-05-24T18:48:56.599Z,50.58
2023-05-24T18:51:24.751Z,50.69
2023-05-24T18:56:35.979Z,50.80
2023-05-24T18:59:11.616Z,51.22
2023-05-24T19:01:52.809Z,50.75
2023-05-24T19:04:20.582Z,51.63
2023-05-24T19:06:54.864Z,50.42
2023-05-24T19:09:31.139Z,50.18
2023-05-24T19:12:02.492Z,51.29
2023-05-24T19:14:36.106Z,50.77
2023-05-24T19:17:04.869Z,50.68
2023-05-24T19:19:46.174Z,51.00
2023-05-24T19:22:14.480Z,51.64
2023-05-24T19:27:37.886Z,51.83
2023-05-24T19:30:10.981Z,51.36
2023-05-24T19:32:54.748Z,52.13
2023-05-24T19:35:26.675Z,51.88
2023-05-24T19:40:38.615Z,51.54
2023-05-24T19:43:14.541Z,52.06
2023-05-24T19:45:53.633Z,52.14
2023-05-24T19:48:28.513Z,53.49
2023-05-24T19:50:57.779Z,52.96
2023-05-24T19:56:17.797Z,52.94
2023-05-24T19:59:01.511Z,52.37
2023-05-24T20:01:29.184Z,52.88
2023-05-24T20:03:57.980Z,52.25
2023-05-24T20:06:27.522Z,52.28
2023-05-24T20:08:59.524Z,51.91
2023-05-24T20:11:35.515Z,52.08
2023-05-24T20:14:07.427Z,53.34
2023-05-24T20:16:36.583Z,53.21
2023-05-24T20:19:11.503Z,52.80
2023-05-24T20:21:39.040Z,53.78
2023-05-24T20:24:07.538Z,53.15
2023-05-24T20:26:43.635Z,53.11
2023-05-24T20:29:15.502Z,52.81
2023-05-24T20:31:44.767Z,53.04
2023-05-24T20:34:13.396Z,53.83
2023-05-24T20:36:43.918Z,52.91
2023-05-24T20:39:13.034Z,52.69
2023-05-24T20:41:41.562Z,53.02
2023-05-24T20:44:09.076Z,52.86
2023-05-24T20:46:38.498Z,52.91
2023-05-24T20:49:13.540Z,53.32
2023-05-24T20:51:45.541Z,53.26
2023-05-24T20:54:14.028Z,53.93
2023-05-24T20:56:48.461Z,54.08
2023-05-24T20:59:16.218Z,54.25
2023-05-24T21:01:45.692Z,54.67
2023-05-24T21:04:14.456Z,54.39
2023-05-24T21:06:41.960Z,54.44
2023-05-24T21:09:09.785Z,54.03
2023-05-24T21:11:37.401Z,54.22
2023-05-24T21:14:07.605Z,53.97
2023-05-24T21:16:36.526Z,53.85
2023-05-24T21:19:04.346Z,54.12
2023-05-24T21:21:32.846Z,53.95
2023-05-24T21:24:01.778Z,54.28
2023-05-24T21:26:29.602Z,54.75
2023-05-24T21:28:58.762Z,55.48
2023-05-24T21:31:29.722Z,54.48
2023-05-24T21:34:01.852Z,54.09
2023-05-24T21:36:29.781Z,54.53
2023-05-24T21:38:57.994Z,55.18
2023-05-24T21:41:27.532Z,55.57
2023-05-24T21:43:55.645Z,55.49
2023-05-24T21:46:30.939Z,55.46
2023-05-24T21:48:59.200Z,55.34
2023-05-24T21:51:26.988Z,55.38
2023-05-24T21:53:54.504Z,55.54
2023-05-24T21:56:23.731Z,55.43
2023-05-24T21:58:54.691Z,55.69
2023-05-24T22:01:22.479Z,55.40
2023-05-24T22:03:51.341Z,55.56
2023-05-24T22:06:18.734Z,55.83
2023-05-24T22:08:46.259Z,55.90
2023-05-24T22:11:14.010Z,56.28
2023-05-24T22:13:41.836Z,56.40
2023-05-24T22:16:13.736Z,56.65
2023-05-24T22:18:42.297Z,56.85
2023-05-24T22:21:09.675Z,56.65
2023-05-24T22:23:37.365Z,56.11
2023-05-24T22:26:05.027Z,55.91
2023-05-24T22:28:34.118Z,55.89
2023-05-24T22:31:03.196Z,55.81
2023-05-24T22:33:30.981Z,57.44
2023-05-24T22:35:58.464Z,57.38
2023-05-24T22:38:26.569Z,56.50
2023-05-24T22:40:54.268Z,56.58
2023-05-24T22:43:22.756Z,56.08
2023-05-24T22:45:51.450Z,56.26
2023-05-24T22:48:21.974Z,56.42
2023-05-24T22:50:49.501Z,56.08
2023-05-24T22:53:18.060Z,56.13
2023-05-24T22:55:46.115Z,56.25
2023-05-24T22:58:13.581Z,56.05
2023-05-24T23:00:41.633Z,57.10
2023-05-24T23:03:09.271Z,55.99
2023-05-24T23:05:36.688Z,56.39
2023-05-24T23:08:04.154Z,56.70
2023-05-24T23:10:32.713Z,57.00
2023-05-24T23:13:00.684Z,56.69
2023-05-24T23:15:29.620Z,57.06
2023-05-24T23:17:58.294Z,56.92
2023-05-24T23:20:27.871Z,57.33
2023-05-24T23:22:55.262Z,56.94
2023-05-24T23:25:23.395Z,56.51
2023-05-24T23:27:50.833Z,56.82
2023-05-24T23:30:19.465Z,56.73
2023-05-24T23:32:47.399Z,56.56
2023-05-24T23:35:15.980Z,56.76
2023-05-24T23:37:43.365Z,56.34
2023-05-24T23:40:11.327Z,56.80
2023-05-24T23:42:39.009Z,56.79
2023-05-24T23:45:08.442Z,56.61
2023-05-24T23:47:36.425Z,56.36
2023-05-24T23:50:03.931Z,56.72
2023-05-24T23:52:31.470Z,56.65
2023-05-24T23:54:59.330Z,56.37
2023-05-24T23:57:27.175Z,57.38
2023-05-24T23:59:54.388Z,57.05
